Impacts TAF Board INFO
FOR SITUATIONAL AWARENESS. NOT TO BE USED FOR FLIGHT PLANNING PURPOSES.
IDs:

KBOS - Boston/Logan Intl, MA, US

Issued at 1722 UTC 16 Jan 2018
Updated at 1905 UTC 16 Jan 2018
Potential Impact None Slight Moderate High
Time1854Z 16/20Z 16/21Z 16/22Z 16/23Z 17/00Z 17/01Z 17/02Z 17/03Z 17/04Z 17/05Z 17/06Z 17/07Z 17/08Z>>
Type OBS PRVL PRVL PRVL PRVL PRVL PRVL PRVL PRVL PRVL PRVL PRVL PRVL PRVL
VIS 10 >6 >6 >6 >6 >6 >6 >6 >6 >6 >6 >6 >6 1
CIG 90 25 25 25 25 25 25 25 25 25 30 30 30 25
Cover BKN BKN BKN BKN BKN BKN BKN BKN BKN BKN OVC OVC OVC OVC
FltCat VFR MVFR MVFR MVFR MVFR MVFR MVFR MVFR MVFR MVFR MVFR MVFR MVFR IFR
WX -- -- -- -- -- -- -- -- -- -- -- -- -- -SN
WDir 140 220 220 220 220 220 220 220 220 220 180 180 180 140
WSpd 4 4 4 4 4 4 4 4 4 4 4 4 4 4
WGst -- -- -- -- -- -- -- -- -- -- -- -- -- --

Raw TAF
KBOS 161722Z 1618/1724 22004KT P6SM BKN025
  FM170500 18004KT P6SM OVC030
  FM170800 14004KT 1SM -SN OVC025
  FM171200 08005KT 1/2SM SN OVC008
  FM171500 06006KT 1SM -SNRA OVC003
  FM171800 02007KT 4SM -RA OVC003
  FM172100 32007KT P6SM OVC025


Raw METAR
KBOS 161854Z 14004KT 10SM FEW028 BKN090 BKN200 00/M05 A3046 RMK AO2 SLP313 T00001050
KBOS 161754Z 14004KT 10SM FEW028 BKN090 M01/M06 A3047 RMK AO2 SLP316 T10061061 11006 21061 56018
KBOS 161751Z 15003KT 10SM FEW028 BKN090 M01/M06 A3047 RMK AO2
KBOS 161712Z 13004KT 10SM BKN028 BKN250 M01/M07 A3048 RMK AO2 T10111067
KBOS 161654Z 17003KT 10SM FEW035 BKN250 M01/M06 A3049 RMK AO2 SLP325 T10111061

METAR Board
Radar Display
Forecast Discussion

FOR SITUATIONAL AWARENESS. NOT TO BE USED FOR FLIGHT PLANNING PURPOSES.